sensor_id;sensor_type;location;lat;lon;timestamp;P1;durP1;ratioP1;P2;durP2;ratioP2
64915;SDS011;51427;-27.442;153.014;2023-04-01T00:01:04;3.08;;;1.08;;
64915;SDS011;51427;-27.442;153.014;2023-04-01T00:03:32;3.83;;;0.95;;
64915;SDS011;51427;-27.442;153.014;2023-04-01T00:06:01;2.17;;;0.90;;
64915;SDS011;51427;-27.442;153.014;2023-04-01T00:08:28;2.30;;;0.73;;
64915;SDS011;51427;-27.442;153.014;2023-04-01T00:10:56;1.25;;;0.80;;
64915;SDS011;51427;-27.442;153.014;2023-04-01T00:13:26;3.47;;;1.15;;
64915;SDS011;51427;-27.442;153.014;2023-04-01T00:15:54;1.70;;;0.88;;
64915;SDS011;51427;-27.442;153.014;2023-04-01T00:18:22;1.85;;;1.17;;
64915;SDS011;51427;-27.442;153.014;2023-04-01T00:20:50;3.15;;;0.93;;
64915;SDS011;51427;-27.442;153.014;2023-04-01T00:23:19;1.33;;;0.60;;
64915;SDS011;51427;-27.442;153.014;2023-04-01T00:25:47;2.40;;;0.90;;
64915;SDS011;51427;-27.442;153.014;2023-04-01T00:28:18;3.10;;;0.90;;
64915;SDS011;51427;-27.442;153.014;2023-04-01T00:30:46;3.42;;;1.30;;
64915;SDS011;51427;-27.442;153.014;2023-04-01T00:33:14;0.90;;;0.90;;
64915;SDS011;51427;-27.442;153.014;2023-04-01T00:35:42;0.80;;;0.80;;
64915;SDS011;51427;-27.442;153.014;2023-04-01T00:38:10;3.33;;;1.25;;
64915;SDS011;51427;-27.442;153.014;2023-04-01T00:40:41;1.13;;;1.00;;
64915;SDS011;51427;-27.442;153.014;2023-04-01T00:43:15;4.03;;;0.90;;
64915;SDS011;51427;-27.442;153.014;2023-04-01T00:45:45;3.80;;;1.13;;
64915;SDS011;51427;-27.442;153.014;2023-04-01T00:48:21;2.33;;;1.00;;
64915;SDS011;51427;-27.442;153.014;2023-04-01T00:51:13;1.58;;;0.90;;
64915;SDS011;51427;-27.442;153.014;2023-04-01T00:53:43;1.17;;;0.95;;
64915;SDS011;51427;-27.442;153.014;2023-04-01T00:56:17;2.15;;;1.20;;
64915;SDS011;51427;-27.442;153.014;2023-04-01T00:59:07;2.50;;;0.88;;
64915;SDS011;51427;-27.442;153.014;2023-04-01T01:01:40;0.93;;;0.80;;
64915;SDS011;51427;-27.442;153.014;2023-04-01T01:04:20;2.25;;;0.95;;
64915;SDS011;51427;-27.442;153.014;2023-04-01T01:07:13;2.05;;;1.00;;
64915;SDS011;51427;-27.442;153.014;2023-04-01T01:10:01;2.90;;;1.00;;
64915;SDS011;51427;-27.442;153.014;2023-04-01T01:12:41;1.58;;;0.80;;
64915;SDS011;51427;-27.442;153.014;2023-04-01T01:15:21;1.50;;;0.65;;
64915;SDS011;51427;-27.442;153.014;2023-04-01T01:17:54;1.63;;;0.90;;
64915;SDS011;51427;-27.442;153.014;2023-04-01T01:20:48;1.27;;;0.80;;
64915;SDS011;51427;-27.442;153.014;2023-04-01T01:32:06;2.53;;;1.10;;
64915;SDS011;51427;-27.442;153.014;2023-04-01T01:37:43;2.22;;;0.90;;
64915;SDS011;51427;-27.442;153.014;2023-04-01T01:40:12;1.33;;;1.00;;
64915;SDS011;51427;-27.442;153.014;2023-04-01T01:42:43;2.88;;;1.02;;
64915;SDS011;51427;-27.442;153.014;2023-04-01T01:45:14;1.98;;;0.98;;
64915;SDS011;51427;-27.442;153.014;2023-04-01T01:47:45;2.70;;;1.17;;
64915;SDS011;51427;-27.442;153.014;2023-04-01T01:50:14;2.45;;;1.50;;
64915;SDS011;51427;-27.442;153.014;2023-04-01T01:52:43;1.17;;;0.98;;
64915;SDS011;51427;-27.442;153.014;2023-04-01T01:55:23;2.42;;;1.08;;
64915;SDS011;51427;-27.442;153.014;2023-04-01T01:57:51;1.75;;;1.00;;
64915;SDS011;51427;-27.442;153.014;2023-04-01T02:00:20;2.38;;;0.95;;
64915;SDS011;51427;-27.442;153.014;2023-04-01T02:02:47;2.22;;;0.80;;
64915;SDS011;51427;-27.442;153.014;2023-04-01T02:05:20;1.83;;;0.80;;
64915;SDS011;51427;-27.442;153.014;2023-04-01T02:08:02;2.53;;;0.90;;
64915;SDS011;51427;-27.442;153.014;2023-04-01T02:10:37;4.10;;;0.93;;
64915;SDS011;51427;-27.442;153.014;2023-04-01T02:13:27;1.75;;;0.70;;
64915;SDS011;51427;-27.442;153.014;2023-04-01T02:16:19;2.30;;;0.70;;
64915;SDS011;51427;-27.442;153.014;2023-04-01T02:18:50;1.85;;;0.82;;
64915;SDS011;51427;-27.442;153.014;2023-04-01T02:21:21;2.65;;;0.80;;
64915;SDS011;51427;-27.442;153.014;2023-04-01T02:23:50;0.77;;;0.73;;
64915;SDS011;51427;-27.442;153.014;2023-04-01T02:26:20;1.15;;;0.70;;
64915;SDS011;51427;-27.442;153.014;2023-04-01T02:28:48;1.30;;;1.08;;
64915;SDS011;51427;-27.442;153.014;2023-04-01T02:31:18;0.70;;;0.65;;
64915;SDS011;51427;-27.442;153.014;2023-04-01T02:33:46;0.85;;;0.77;;
64915;SDS011;51427;-27.442;153.014;2023-04-01T02:36:14;1.23;;;0.80;;
64915;SDS011;51427;-27.442;153.014;2023-04-01T02:38:43;1.88;;;0.63;;
64915;SDS011;51427;-27.442;153.014;2023-04-01T02:41:12;2.08;;;0.70;;
64915;SDS011;51427;-27.442;153.014;2023-04-01T02:43:39;1.00;;;0.60;;
64915;SDS011;51427;-27.442;153.014;2023-04-01T02:46:06;2.83;;;1.05;;
64915;SDS011;51427;-27.442;153.014;2023-04-01T02:48:34;1.02;;;0.77;;
64915;SDS011;51427;-27.442;153.014;2023-04-01T02:51:01;1.65;;;0.77;;
64915;SDS011;51427;-27.442;153.014;2023-04-01T02:53:28;1.17;;;1.00;;
64915;SDS011;51427;-27.442;153.014;2023-04-01T02:55:55;2.58;;;1.02;;
64915;SDS011;51427;-27.442;153.014;2023-04-01T02:58:22;1.83;;;0.80;;
64915;SDS011;51427;-27.442;153.014;2023-04-01T03:00:50;1.85;;;0.70;;
64915;SDS011;51427;-27.442;153.014;2023-04-01T03:03:17;1.05;;;0.85;;
64915;SDS011;51427;-27.442;153.014;2023-04-01T03:05:44;1.23;;;0.80;;
64915;SDS011;51427;-27.442;153.014;2023-04-01T03:08:12;1.05;;;0.93;;
64915;SDS011;51427;-27.442;153.014;2023-04-01T03:10:39;2.53;;;1.08;;
64915;SDS011;51427;-27.442;153.014;2023-04-01T03:13:06;1.60;;;1.08;;
64915;SDS011;51427;-27.442;153.014;2023-04-01T03:15:34;3.53;;;1.02;;
64915;SDS011;51427;-27.442;153.014;2023-04-01T03:18:01;2.03;;;1.00;;
64915;SDS011;51427;-27.442;153.014;2023-04-01T03:20:28;2.63;;;1.23;;
64915;SDS011;51427;-27.442;153.014;2023-04-01T03:22:56;1.15;;;1.05;;
64915;SDS011;51427;-27.442;153.014;2023-04-01T03:25:23;0.70;;;0.70;;
64915;SDS011;51427;-27.442;153.014;2023-04-01T03:27:51;2.10;;;0.88;;
64915;SDS011;51427;-27.442;153.014;2023-04-01T03:30:18;2.35;;;0.80;;
64915;SDS011;51427;-27.442;153.014;2023-04-01T03:32:45;1.00;;;0.85;;
64915;SDS011;51427;-27.442;153.014;2023-04-01T03:35:12;1.63;;;1.00;;
64915;SDS011;51427;-27.442;153.014;2023-04-01T03:37:40;1.33;;;0.80;;
64915;SDS011;51427;-27.442;153.014;2023-04-01T03:40:07;2.58;;;0.90;;
64915;SDS011;51427;-27.442;153.014;2023-04-01T03:42:35;3.47;;;0.90;;
64915;SDS011;51427;-27.442;153.014;2023-04-01T03:45:03;3.33;;;0.82;;
64915;SDS011;51427;-27.442;153.014;2023-04-01T03:47:30;2.63;;;1.15;;
64915;SDS011;51427;-27.442;153.014;2023-04-01T03:49:58;1.50;;;0.85;;
64915;SDS011;51427;-27.442;153.014;2023-04-01T03:52:25;0.75;;;0.68;;
64915;SDS011;51427;-27.442;153.014;2023-04-01T03:54:52;3.53;;;0.88;;
64915;SDS011;51427;-27.442;153.014;2023-04-01T03:57:20;1.02;;;0.75;;
64915;SDS011;51427;-27.442;153.014;2023-04-01T03:59:47;2.95;;;0.73;;
64915;SDS011;51427;-27.442;153.014;2023-04-01T04:02:14;2.55;;;0.93;;
64915;SDS011;51427;-27.442;153.014;2023-04-01T04:04:42;2.40;;;0.80;;
64915;SDS011;51427;-27.442;153.014;2023-04-01T04:07:09;1.13;;;0.57;;
64915;SDS011;51427;-27.442;153.014;2023-04-01T04:09:36;1.40;;;0.65;;
64915;SDS011;51427;-27.442;153.014;2023-04-01T04:12:04;4.38;;;0.95;;
64915;SDS011;51427;-27.442;153.014;2023-04-01T04:14:32;1.20;;;0.90;;
64915;SDS011;51427;-27.442;153.014;2023-04-01T04:16:59;3.50;;;0.90;;
64915;SDS011;51427;-27.442;153.014;2023-04-01T04:19:26;2.38;;;0.70;;
64915;SDS011;51427;-27.442;153.014;2023-04-01T04:21:59;2.22;;;0.90;;
64915;SDS011;51427;-27.442;153.014;2023-04-01T04:24:27;1.00;;;0.90;;
64915;SDS011;51427;-27.442;153.014;2023-04-01T04:26:54;2.13;;;0.70;;
64915;SDS011;51427;-27.442;153.014;2023-04-01T04:29:21;2.72;;;1.00;;
64915;SDS011;51427;-27.442;153.014;2023-04-01T04:31:49;2.33;;;0.90;;
64915;SDS011;51427;-27.442;153.014;2023-04-01T04:34:16;1.08;;;0.70;;
64915;SDS011;51427;-27.442;153.014;2023-04-01T04:36:44;3.33;;;1.08;;
64915;SDS011;51427;-27.442;153.014;2023-04-01T04:39:11;0.95;;;0.60;;
64915;SDS011;51427;-27.442;153.014;2023-04-01T04:41:38;1.58;;;0.70;;
64915;SDS011;51427;-27.442;153.014;2023-04-01T04:44:06;2.92;;;0.70;;
64915;SDS011;51427;-27.442;153.014;2023-04-01T04:46:34;2.90;;;0.88;;
64915;SDS011;51427;-27.442;153.014;2023-04-01T04:49:02;1.90;;;0.90;;
64915;SDS011;51427;-27.442;153.014;2023-04-01T04:51:30;1.33;;;0.68;;
64915;SDS011;51427;-27.442;153.014;2023-04-01T04:53:59;1.55;;;0.60;;
64915;SDS011;51427;-27.442;153.014;2023-04-01T04:56:27;2.10;;;0.88;;
64915;SDS011;51427;-27.442;153.014;2023-04-01T04:58:54;1.77;;;0.60;;
64915;SDS011;51427;-27.442;153.014;2023-04-01T05:01:21;0.82;;;0.82;;
64915;SDS011;51427;-27.442;153.014;2023-04-01T05:03:49;1.77;;;0.70;;
64915;SDS011;51427;-27.442;153.014;2023-04-01T05:06:17;1.90;;;0.60;;
64915;SDS011;51427;-27.442;153.014;2023-04-01T05:08:44;2.72;;;0.90;;
64915;SDS011;51427;-27.442;153.014;2023-04-01T05:11:13;0.63;;;0.60;;
64915;SDS011;51427;-27.442;153.014;2023-04-01T05:13:44;1.73;;;0.80;;
64915;SDS011;51427;-27.442;153.014;2023-04-01T05:16:13;2.67;;;0.93;;
64915;SDS011;51427;-27.442;153.014;2023-04-01T05:18:42;1.75;;;1.20;;
64915;SDS011;51427;-27.442;153.014;2023-04-01T05:21:10;1.27;;;0.80;;
64915;SDS011;51427;-27.442;153.014;2023-04-01T05:23:39;2.47;;;0.85;;
64915;SDS011;51427;-27.442;153.014;2023-04-01T05:26:11;4.30;;;0.90;;
64915;SDS011;51427;-27.442;153.014;2023-04-01T05:28:40;1.35;;;0.80;;
64915;SDS011;51427;-27.442;153.014;2023-04-01T05:31:07;3.10;;;0.63;;
64915;SDS011;51427;-27.442;153.014;2023-04-01T05:33:35;1.33;;;0.75;;
64915;SDS011;51427;-27.442;153.014;2023-04-01T05:36:09;1.73;;;0.82;;
64915;SDS011;51427;-27.442;153.014;2023-04-01T05:38:39;2.67;;;0.90;;
64915;SDS011;51427;-27.442;153.014;2023-04-01T05:41:07;0.73;;;0.63;;
64915;SDS011;51427;-27.442;153.014;2023-04-01T05:43:35;1.73;;;0.90;;
64915;SDS011;51427;-27.442;153.014;2023-04-01T05:46:03;1.77;;;0.75;;
64915;SDS011;51427;-27.442;153.014;2023-04-01T05:48:30;1.52;;;0.82;;
64915;SDS011;51427;-27.442;153.014;2023-04-01T05:51:00;0.80;;;0.80;;
64915;SDS011;51427;-27.442;153.014;2023-04-01T05:53:28;4.80;;;1.08;;
64915;SDS011;51427;-27.442;153.014;2023-04-01T05:55:55;5.15;;;1.10;;
64915;SDS011;51427;-27.442;153.014;2023-04-01T05:58:22;1.63;;;1.10;;
64915;SDS011;51427;-27.442;153.014;2023-04-01T06:00:50;2.47;;;1.08;;
64915;SDS011;51427;-27.442;153.014;2023-04-01T06:03:17;4.63;;;0.93;;
64915;SDS011;51427;-27.442;153.014;2023-04-01T06:05:44;1.33;;;1.00;;
64915;SDS011;51427;-27.442;153.014;2023-04-01T06:08:12;3.88;;;1.25;;
64915;SDS011;51427;-27.442;153.014;2023-04-01T06:16:33;1.33;;;0.82;;
64915;SDS011;51427;-27.442;153.014;2023-04-01T06:19:21;8.77;;;1.00;;
64915;SDS011;51427;-27.442;153.014;2023-04-01T06:24:55;3.20;;;1.08;;
64915;SDS011;51427;-27.442;153.014;2023-04-01T06:51:44;3.83;;;1.25;;
64915;SDS011;51427;-27.442;153.014;2023-04-01T06:54:35;4.00;;;1.42;;
64915;SDS011;51427;-27.442;153.014;2023-04-01T06:57:38;1.92;;;1.00;;
64915;SDS011;51427;-27.442;153.014;2023-04-01T07:05:34;1.58;;;0.95;;
64915;SDS011;51427;-27.442;153.014;2023-04-01T07:08:03;1.08;;;0.95;;
64915;SDS011;51427;-27.442;153.014;2023-04-01T07:13:52;2.28;;;1.00;;
64915;SDS011;51427;-27.442;153.014;2023-04-01T07:16:19;2.45;;;1.17;;
64915;SDS011;51427;-27.442;153.014;2023-04-01T07:18:52;6.53;;;1.60;;
64915;SDS011;51427;-27.442;153.014;2023-04-01T07:24:27;5.85;;;2.72;;
64915;SDS011;51427;-27.442;153.014;2023-04-01T07:27:14;4.75;;;2.00;;
64915;SDS011;51427;-27.442;153.014;2023-04-01T07:29:41;4.78;;;2.05;;
64915;SDS011;51427;-27.442;153.014;2023-04-01T07:40:42;3.20;;;1.50;;
64915;SDS011;51427;-27.442;153.014;2023-04-01T07:43:14;4.10;;;1.60;;
64915;SDS011;51427;-27.442;153.014;2023-04-01T07:51:44;4.97;;;3.08;;
64915;SDS011;51427;-27.442;153.014;2023-04-01T07:54:41;4.07;;;2.03;;
64915;SDS011;51427;-27.442;153.014;2023-04-01T08:00:14;3.67;;;1.75;;
64915;SDS011;51427;-27.442;153.014;2023-04-01T08:03:05;3.10;;;1.90;;
64915;SDS011;51427;-27.442;153.014;2023-04-01T08:05:57;5.57;;;2.45;;
64915;SDS011;51427;-27.442;153.014;2023-04-01T08:21:33;4.93;;;2.70;;
64915;SDS011;51427;-27.442;153.014;2023-04-01T08:24:31;3.45;;;2.30;;
64915;SDS011;51427;-27.442;153.014;2023-04-01T08:27:06;5.88;;;3.00;;
64915;SDS011;51427;-27.442;153.014;2023-04-01T08:32:22;4.63;;;2.50;;
64915;SDS011;51427;-27.442;153.014;2023-04-01T08:34:57;4.20;;;2.70;;
64915;SDS011;51427;-27.442;153.014;2023-04-01T08:37:41;5.15;;;2.35;;
64915;SDS011;51427;-27.442;153.014;2023-04-01T08:40:26;5.85;;;2.85;;
64915;SDS011;51427;-27.442;153.014;2023-04-01T08:48:36;3.80;;;2.50;;
64915;SDS011;51427;-27.442;153.014;2023-04-01T08:54:04;3.38;;;2.15;;
64915;SDS011;51427;-27.442;153.014;2023-04-01T08:56:57;3.47;;;2.50;;
64915;SDS011;51427;-27.442;153.014;2023-04-01T08:59:45;3.10;;;2.35;;
64915;SDS011;51427;-27.442;153.014;2023-04-01T09:05:28;3.45;;;1.95;;
64915;SDS011;51427;-27.442;153.014;2023-04-01T09:17:18;5.10;;;1.85;;
64915;SDS011;51427;-27.442;153.014;2023-04-01T09:22:57;2.17;;;1.98;;
64915;SDS011;51427;-27.442;153.014;2023-04-01T09:53:01;5.80;;;3.42;;
64915;SDS011;51427;-27.442;153.014;2023-04-01T10:01:06;4.60;;;2.20;;
64915;SDS011;51427;-27.442;153.014;2023-04-01T10:13:03;3.67;;;2.30;;
64915;SDS011;51427;-27.442;153.014;2023-04-01T10:30:02;6.38;;;2.70;;
64915;SDS011;51427;-27.442;153.014;2023-04-01T10:32:30;4.40;;;2.90;;
64915;SDS011;51427;-27.442;153.014;2023-04-01T10:38:12;2.42;;;2.20;;
64915;SDS011;51427;-27.442;153.014;2023-04-01T10:49:25;2.90;;;1.75;;
64915;SDS011;51427;-27.442;153.014;2023-04-01T11:52:52;3.00;;;1.92;;
64915;SDS011;51427;-27.442;153.014;2023-04-01T12:10:21;3.22;;;2.70;;
64915;SDS011;51427;-27.442;153.014;2023-04-01T12:18:23;2.08;;;1.67;;
64915;SDS011;51427;-27.442;153.014;2023-04-01T12:21:16;2.63;;;1.48;;
64915;SDS011;51427;-27.442;153.014;2023-04-01T12:27:05;3.67;;;1.60;;
64915;SDS011;51427;-27.442;153.014;2023-04-01T12:43:06;3.00;;;1.30;;
64915;SDS011;51427;-27.442;153.014;2023-04-01T12:46:02;1.98;;;1.33;;
64915;SDS011;51427;-27.442;153.014;2023-04-01T13:05:43;2.22;;;1.08;;
64915;SDS011;51427;-27.442;153.014;2023-04-01T13:19:25;2.63;;;1.35;;
64915;SDS011;51427;-27.442;153.014;2023-04-01T13:24:45;4.35;;;1.55;;
64915;SDS011;51427;-27.442;153.014;2023-04-01T13:27:37;3.67;;;1.23;;
64915;SDS011;51427;-27.442;153.014;2023-04-01T13:32:45;1.73;;;1.30;;
64915;SDS011;51427;-27.442;153.014;2023-04-01T13:38:03;4.03;;;1.40;;
64915;SDS011;51427;-27.442;153.014;2023-04-01T13:54:05;1.90;;;1.20;;
64915;SDS011;51427;-27.442;153.014;2023-04-01T14:31:13;3.88;;;2.10;;
64915;SDS011;51427;-27.442;153.014;2023-04-01T14:51:02;2.60;;;2.03;;
64915;SDS011;51427;-27.442;153.014;2023-04-01T14:53:59;4.65;;;2.00;;
64915;SDS011;51427;-27.442;153.014;2023-04-01T14:57:09;3.25;;;2.03;;
64915;SDS011;51427;-27.442;153.014;2023-04-01T14:59:27;5.40;;;2.00;;
64915;SDS011;51427;-27.442;153.014;2023-04-01T15:01:57;2.65;;;1.92;;
64915;SDS011;51427;-27.442;153.014;2023-04-01T15:04:44;2.65;;;2.00;;
64915;SDS011;51427;-27.442;153.014;2023-04-01T15:10:20;3.17;;;1.80;;
64915;SDS011;51427;-27.442;153.014;2023-04-01T15:13:05;2.42;;;1.70;;
64915;SDS011;51427;-27.442;153.014;2023-04-01T15:18:43;4.50;;;1.80;;
64915;SDS011;51427;-27.442;153.014;2023-04-01T15:29:23;2.00;;;1.80;;
64915;SDS011;51427;-27.442;153.014;2023-04-01T15:37:29;2.38;;;1.75;;
64915;SDS011;51427;-27.442;153.014;2023-04-01T15:51:42;4.75;;;2.38;;
64915;SDS011;51427;-27.442;153.014;2023-04-01T15:56:51;2.97;;;2.20;;
64915;SDS011;51427;-27.442;153.014;2023-04-01T15:59:28;3.08;;;2.45;;
64915;SDS011;51427;-27.442;153.014;2023-04-01T16:08:24;4.80;;;2.30;;
64915;SDS011;51427;-27.442;153.014;2023-04-01T16:14:17;2.35;;;2.15;;
64915;SDS011;51427;-27.442;153.014;2023-04-01T16:20:00;3.67;;;2.03;;
64915;SDS011;51427;-27.442;153.014;2023-04-01T16:36:33;2.53;;;1.88;;
64915;SDS011;51427;-27.442;153.014;2023-04-01T16:47:06;2.28;;;2.05;;
64915;SDS011;51427;-27.442;153.014;2023-04-01T16:49:46;2.63;;;2.17;;
64915;SDS011;51427;-27.442;153.014;2023-04-01T16:52:35;2.30;;;1.83;;
64915;SDS011;51427;-27.442;153.014;2023-04-01T16:55:15;5.72;;;2.00;;
64915;SDS011;51427;-27.442;153.014;2023-04-01T16:57:56;3.13;;;1.85;;
64915;SDS011;51427;-27.442;153.014;2023-04-01T17:01:00;2.67;;;2.10;;
64915;SDS011;51427;-27.442;153.014;2023-04-01T17:04:04;3.67;;;2.10;;
64915;SDS011;51427;-27.442;153.014;2023-04-01T17:09:21;3.45;;;2.30;;
64915;SDS011;51427;-27.442;153.014;2023-04-01T17:14:54;6.88;;;2.30;;
64915;SDS011;51427;-27.442;153.014;2023-04-01T17:17:42;3.15;;;1.90;;
64915;SDS011;51427;-27.442;153.014;2023-04-01T17:20:23;2.40;;;1.98;;
64915;SDS011;51427;-27.442;153.014;2023-04-01T17:25:48;1.70;;;1.60;;
64915;SDS011;51427;-27.442;153.014;2023-04-01T17:28:20;4.35;;;2.00;;
64915;SDS011;51427;-27.442;153.014;2023-04-01T17:31:17;1.80;;;1.58;;
64915;SDS011;51427;-27.442;153.014;2023-04-01T17:39:30;2.38;;;1.83;;
64915;SDS011;51427;-27.442;153.014;2023-04-01T17:45:11;2.35;;;2.10;;
64915;SDS011;51427;-27.442;153.014;2023-04-01T18:07:38;3.22;;;2.08;;
64915;SDS011;51427;-27.442;153.014;2023-04-01T18:10:38;2.83;;;1.90;;
64915;SDS011;51427;-27.442;153.014;2023-04-01T18:29:54;2.63;;;1.90;;
64915;SDS011;51427;-27.442;153.014;2023-04-01T18:51:49;4.20;;;2.00;;
64915;SDS011;51427;-27.442;153.014;2023-04-01T19:09:31;1.92;;;1.80;;
64915;SDS011;51427;-27.442;153.014;2023-04-01T19:20:13;2.42;;;1.90;;
64915;SDS011;51427;-27.442;153.014;2023-04-01T19:28:01;4.50;;;1.58;;
64915;SDS011;51427;-27.442;153.014;2023-04-01T19:36:13;5.55;;;2.03;;
64915;SDS011;51427;-27.442;153.014;2023-04-01T19:49:51;3.25;;;2.38;;
64915;SDS011;51427;-27.442;153.014;2023-04-01T19:52:36;2.95;;;1.98;;
64915;SDS011;51427;-27.442;153.014;2023-04-01T20:00:37;4.03;;;1.88;;
64915;SDS011;51427;-27.442;153.014;2023-04-01T20:06:06;2.22;;;1.73;;
64915;SDS011;51427;-27.442;153.014;2023-04-01T20:17:38;6.38;;;3.38;;
64915;SDS011;51427;-27.442;153.014;2023-04-01T20:46:01;7.68;;;2.55;;
64915;SDS011;51427;-27.442;153.014;2023-04-01T20:48:37;6.00;;;3.20;;
64915;SDS011;51427;-27.442;153.014;2023-04-01T20:51:16;6.45;;;3.47;;
64915;SDS011;51427;-27.442;153.014;2023-04-01T20:53:59;3.38;;;2.15;;
64915;SDS011;51427;-27.442;153.014;2023-04-01T21:00:03;4.80;;;2.40;;
64915;SDS011;51427;-27.442;153.014;2023-04-01T21:28:05;3.05;;;1.85;;
64915;SDS011;51427;-27.442;153.014;2023-04-01T21:39:21;2.88;;;2.25;;
64915;SDS011;51427;-27.442;153.014;2023-04-01T21:47:19;2.53;;;1.60;;
64915;SDS011;51427;-27.442;153.014;2023-04-01T21:53:01;1.92;;;1.50;;
64915;SDS011;51427;-27.442;153.014;2023-04-01T22:04:03;3.00;;;1.52;;
64915;SDS011;51427;-27.442;153.014;2023-04-01T22:09:34;2.58;;;1.90;;
64915;SDS011;51427;-27.442;153.014;2023-04-01T22:17:27;2.38;;;1.80;;
64915;SDS011;51427;-27.442;153.014;2023-04-01T22:22:54;2.22;;;1.40;;
64915;SDS011;51427;-27.442;153.014;2023-04-01T22:25:29;2.25;;;1.50;;
64915;SDS011;51427;-27.442;153.014;2023-04-01T22:28:00;2.13;;;1.38;;
64915;SDS011;51427;-27.442;153.014;2023-04-01T22:30:43;2.03;;;1.42;;
64915;SDS011;51427;-27.442;153.014;2023-04-01T22:35:54;4.50;;;1.50;;
64915;SDS011;51427;-27.442;153.014;2023-04-01T22:44:41;3.50;;;1.98;;
64915;SDS011;51427;-27.442;153.014;2023-04-01T22:47:45;2.20;;;1.33;;
64915;SDS011;51427;-27.442;153.014;2023-04-01T22:50:19;2.15;;;0.98;;
64915;SDS011;51427;-27.442;153.014;2023-04-01T22:52:56;2.85;;;1.60;;
64915;SDS011;51427;-27.442;153.014;2023-04-01T22:55:32;4.18;;;1.77;;
64915;SDS011;51427;-27.442;153.014;2023-04-01T22:58:04;1.33;;;1.20;;
64915;SDS011;51427;-27.442;153.014;2023-04-01T23:00:38;2.28;;;1.40;;
64915;SDS011;51427;-27.442;153.014;2023-04-01T23:05:52;2.05;;;1.55;;
64915;SDS011;51427;-27.442;153.014;2023-04-01T23:12:15;3.28;;;1.70;;
64915;SDS011;51427;-27.442;153.014;2023-04-01T23:27:43;4.00;;;2.00;;
64915;SDS011;51427;-27.442;153.014;2023-04-01T23:33:10;2.35;;;1.50;;
64915;SDS011;51427;-27.442;153.014;2023-04-01T23:38:35;2.08;;;1.50;;
64915;SDS011;51427;-27.442;153.014;2023-04-01T23:41:05;4.82;;;1.50;;
64915;SDS011;51427;-27.442;153.014;2023-04-01T23:43:36;3.22;;;1.33;;
64915;SDS011;51427;-27.442;153.014;2023-04-01T23:46:05;1.98;;;1.52;;
64915;SDS011;51427;-27.442;153.014;2023-04-01T23:48:38;2.30;;;1.23;;
64915;SDS011;51427;-27.442;153.014;2023-04-01T23:51:16;1.95;;;1.52;;
64915;SDS011;51427;-27.442;153.014;2023-04-01T23:53:55;1.65;;;1.30;;
64915;SDS011;51427;-27.442;153.014;2023-04-01T23:56:47;1.50;;;1.40;;
64915;SDS011;51427;-27.442;153.014;2023-04-01T23:59:30;3.78;;;1.25;;
